Open Full Screen Window  High Contrast Mode
Wind Gusting 16 knots
11
February 01, 2015 2:40 PM EST
Present Weather: Light Snow
Weather Information
Wind Direction
  190 °
Wind Speed
  11 kt (13 mph)
Wind Gust
  16 kt (18 mph)
Altimeter
29.73 in
Visibility
7 SM
Temperature
06° C
43° F
Dewpoint
04° C
39° F
Humidity
87%
1hr Rain Fall
00.01 in.
24hr Rain Fall
00.04 in.
Sky Condition
Overcast @ 7,000 ft
Broken @ 5,000 ft
Broken @ 4,200 ft
VFR

METAR KI69 011940Z AUTO 19011G16KT 7SM -SN BKN042 BKN050 OVC070 06/04 A2973 RMK AO1 P0001

*Background is not an actual portrayal of the airport.